• Join FlightAware (Why Join?)
  • Login
  • US Flag 
03:37AM EDT


 

Airport Tracker/Info


-or-


 

Live Flight TrackerFlight Track Log ✈ N470BC ✈ 15-Oct-2013 ✈ MUCC / CCC - KDDH

Flight Track Log - Related Links

Times and Time Zones

All times are in EDT time to prevent confusion due to time zone crossing. See the N470BC flight status page for this flight to view local times or setup timezone preferences in your user account.

Time Position Orientation Groundspeed Altitude Reporting Facility
EDT Latitude Longitude Course Direction KTS MPH feet Rate Location/Type
08:54PM 41.4333 -73.1167 350° North 149 171 7,500  Level New York TRACON
08:54PM 41.4667 -73.1244 350° North 156 180 7,500  Level Boston Center
08:55PM 41.5167 -73.1303 355° North 182 209 7,500  Level Boston Center
08:56PM 41.5689 -73.1336 357° North 186 214 7,500  Level Boston Center
08:57PM 41.6189 -73.1397 355° North 186 214 7,500  Level Boston Center
08:58PM 41.6731 -73.1433 357° North 187 215 7,500  Level Boston Center
08:59PM 41.7272 -73.1494 355° North 186 214 7,500  Level Boston Center
09:00PM 41.7769 -73.1556 355° North 186 214 7,500  Level Boston Center
09:01PM 41.8311 -73.1589 357° North 188 216 7,500  Level Boston Center
09:02PM 41.8833 -73.1650 355° North 188 216 7,500  Level Boston Center
09:03PM 41.9353 -73.1658 359° North 188 216 7,500  Level Boston Center
09:04PM 41.9853 -73.1719 355° North 184 212 7,500  Level Boston Center
09:05PM 42.0394 -73.1725 360° North 187 215 7,500  Level Boston Center
09:06PM 42.0542 -73.1756 351° North 187 215 7,500  Level Boston Center
09:07PM 42.1042 -73.1817 355° North 187 215 7,500  Level Boston Center
09:08PM 42.1519 -73.1822 360° North 185 213 7,500  Level Boston Center
09:09PM 42.2061 -73.1911 353° North 186 214 7,500  Level Boston Center
09:10PM 42.2583 -73.1919 359° North 184 212 7,500  Level Boston Center
09:11PM 42.3083 -73.1981 355° North 184 212 7,500  Level Boston Center
09:12PM 42.3625 -73.2044 355° North 182 209 7,500 -300 Level Boston Center
09:13PM 42.4144 -73.2050 360° North 193 222 7,000 -660 Descending Boston Center
09:14PM 42.4728 -73.2142 353° North 200 230 6,300 -660 Descending Boston Center
09:15PM 42.5292 -73.2147 360° North 203 234 5,700 -600 Descending Boston Center
09:16PM 42.5853 -73.2239 353° North 200 230 5,100 -600 Descending Boston Center
09:17PM 42.6394 -73.2275 357° North 198 228 4,600 -540 Descending Boston Center
09:18PM 42.6956 -73.2311 357° North 200 230 4,000 -600 Descending Boston Center
09:20PM 42.7969 -73.2326 359° North  Level FlightAware Approximate
09:27PM 42.8833 -73.2333 North  Level FlightAware Approximate
09:28PM 42.8912 -73.2461 North  Level Estimated
09:29PM 42.8912 -73.2461 North  Level Estimated
09:30PM 42.8912 -73.2461 North  Level Estimated
09:31PM 42.8912 -73.2461 North  Level Estimated
09:32PM 42.8912 -73.2461 North  Level Estimated
09:33PM 42.8912 -73.2461 North  Level Estimated